Airfield :
LOGIN :

Register | Disclaimer

   EN    FR    IT 

 










Legend :    VFR   Marginal VFR   IFR   Intensive IFR   Very Intensive IFR
Visi :
Ceiling :
>= 8 km
>= 3000ft
5 to 8 km
1000 to 3000 ft
1500m to 5 km
500 to 1000 ft
800 to 1500m
200 to 500 ft
< 800m
< 200 ft
Symbols :   Thunderstorms  Fog  Heavy snow  Heavy precipitations  Wind > 20 kt
SIGMETs :     Misc.  Thunderstorms  Icing  Turbulence  Mountain Waves  Volcanic Ashes







- Airport Elevation : 1411 ft
- IATA code : SZG


LOWS - Salzburg

CURRENT METAR :
  • 291050Z 22005KT 160V330 9999 FEW028 BKN046 11/M01 Q1018 NOSIG

EXPIRED METARs :
  • 291020Z VRB03KT 9999 FEW025 SCT045 10/M00 Q1018 NOSIG
  • 290950Z VRB02KT 9999 FEW025 SCT050 09/01 Q1019 NOSIG
  • 290920Z VRB03KT 9999 FEW025 SCT050 10/03 Q1019 NOSIG
  • 290850Z 15006KT 100V190 9999 FEW025 SCT045 08/03 Q1019 NOSIG
  • 290820Z 15007KT 120V180 9999 FEW020 SCT045 08/03 Q1019 NOSIG

TAF TAF LOWS
Valid from the 29 at 06:00 until the 30 at 06:00 UTC


290515Z 2906/3006 15007KT 9999 FEW020 BKN040 TX11/2915Z TNM01/3006Z
BECMG 2907/2909 33006KT SCT060 SCT100
BECMG 2917/2919 15007KT CAVOK
No reported NOTAMs for that airfield.



MET'MAP, your aeronautical weather chart ! - Copyright ORBIFLY December 2007 - Disclaimer

ORBIFLY MET'MAP TEAM :

Programming & Development : Alexandra Zaïnal
Concept & Development : Baudouin d'Aumeries
Co-Development & Prog : Marc-Olivier Méhu
Technical & hardware support : Manuel Goepfert

Contact : metmap@orbifly.com




SOURCES & CREDITS :

   NOAA